Latest Weather Observations for Julia Creek

IDQ60801

Issued at 12:22 pm EST Thursday 1 October 2020 (issued every 10 minutes, with the page automatically refreshed every 10 minutes)

About weather observations | Map of weather stations | Latest weather observations for QLD | Other Formats
Station Details ID: 029058 Name: JULIA CREEK AIRPORT Lat: -20.67 Lon: 141.72 Height: 122.5 m
Data from the previous 72 hours. | See also: Recent months at Julia Creek
Date/Time
EST
Temp
°C
App
Temp
°C
Dew
Point
°C
Rel
Hum
%
Delta-T
°C
Wind Press
QNH
hPa
Press
MSL
hPa
Rain since
9am
mm
Dir  Spd
km/h
Gust
km/h
Spd
kts
Gust
kts
01/12:00pm 33.0 30.8 7.8 21 14.0 S 9 13 5 7 1015.5 1014.7 0.0
01/11:30am 32.8 31.1 8.3 22 13.7 NW 7 19 4 10 1015.9 1015.1 0.0
01/11:00am 31.2 28.5 8.8 25 12.5 W 13 24 7 13 1016.3 1015.5 0.0
01/10:30am 31.0 29.0 8.7 25 12.5 NW 9 26 5 14 1016.4 1015.6 0.0
01/10:00am 29.9 26.9 7.8 25 12.1 W 13 20 7 11 1016.6 1015.8 0.0
01/09:30am 28.7 26.1 6.1 24 12.0 SE 9 17 5 9 1016.7 1016.1 0.0
01/09:00am 27.4 23.1 5.1 24 11.5 SSE 17 24 9 13 1016.6 1016.0 0.0
01/08:30am 26.2 21.4 4.6 25 11.0 SSE 19 26 10 14 1016.4 1015.8 0.0
01/08:00am 24.9 22.0 4.6 27 10.2 E 9 13 5 7 1016.1 1015.5 0.0
01/07:30am 23.3 20.9 4.3 29 9.4 NNE 6 13 3 7 1015.8 1015.2 0.0
01/07:00am 21.9 18.6 4.5 32 8.6 NE 11 17 6 9 1015.4 1014.8 0.0
01/06:30am 19.1 15.3 4.1 37 7.2 ESE 13 20 7 11 1014.8 1014.2 0.0
01/06:00am 18.3 13.3 3.4 37 7.0 SSW 19 20 10 11 1013.8 1013.3 0.0
01/05:30am 19.3 15.0 3.1 34 7.6 SSW 15 19 8 10 1013.5 1013.0 0.0
01/05:00am 19.9 15.5 2.7 32 8.1 SSW 15 20 8 11 1013.3 1012.8 0.0
01/04:30am 22.3 17.5 4.4 31 8.8 S 19 20 10 11 1012.5 1012.0 0.0
01/04:00am 22.7 17.8 4.2 30 9.1 S 19 22 10 12 1012.3 1011.8 0.0
01/03:30am 21.6 17.5 4.2 32 8.5 S 15 19 8 10 1012.1 1011.6 0.0
01/03:00am 23.5 19.0 4.0 28 9.6 S 17 22 9 12 1012.0 1011.5 0.0
01/02:30am 23.7 18.8 4.1 28 9.7 S 19 22 10 12 1011.9 1011.4 0.0
01/02:00am 24.8 19.3 4.0 26 10.4 S 22 26 12 14 1012.0 1011.5 0.0
01/01:30am 25.0 19.7 3.0 24 10.8 S 20 28 11 15 1012.0 1011.5 0.0
01/01:00am 23.3 18.4 2.2 25 10.1 S 17 20 9 11 1012.1 1011.6 0.0
01/12:30am 24.2 18.9 1.8 23 10.7 S 19 22 10 12 1012.3 1011.8 0.0
01/12:00am 25.0 19.7 1.8 22 11.1 SSE 19 22 10 12 1012.3 1011.8 0.0
 
Date/Time
EST
Temp
°C
App
Temp
°C
Dew
Point
°C
Rel
Hum
%
Delta-T
°C
Wind Press
QNH
hPa
Press
MSL
hPa
Rain since
9am
mm
Dir  Spd
km/h
Gust
km/h
Spd
kts
Gust
kts
30/11:30pm 24.9 19.6 1.7 22 11.1 SSE 19 20 10 11 1012.2 1011.7 0.0
30/11:00pm 23.3 18.7 1.6 24 10.2 SSE 15 17 8 9 1012.3 1011.8 0.0
30/10:30pm 23.8 19.5 0.8 22 10.7 SSE 13 17 7 9 1012.4 1011.9 0.0
30/10:00pm 25.9 20.4 1.9 21 11.6 S 20 22 11 12 1012.3 1011.8 0.0
30/09:30pm 25.5 20.2 1.6 21 11.4 S 19 20 10 11 1012.0 1011.5 0.0
30/09:00pm 25.4 20.8 1.5 21 11.4 SSE 15 19 8 10 1011.7 1011.2 0.0
30/08:30pm 26.6 21.9 1.1 19 12.2 S 15 17 8 9 1011.3 1010.8 0.0
30/08:00pm 29.4 26.0 1.8 17 13.6 S 9 11 5 6 1010.9 1010.3 0.0
30/07:30pm 29.9 26.0 1.4 16 14.0 S 11 13 6 7 1010.4 1009.8 0.0
30/07:00pm 30.7 26.4 1.1 15 14.6 SSW 13 15 7 8 1010.0 1009.4 0.0
30/06:30pm 33.4 28.6 0.1 12 16.4 SSW 15 17 8 9 1009.6 1009.0 0.0
30/06:00pm 35.6 30.3 -0.7 10 17.9 SSW 17 28 9 15 1009.2 1008.6 0.0
30/05:30pm 36.7 31.9 0.1 10 18.4 SSW 15 22 8 12 1009.0 1008.4 0.0
30/05:00pm 37.1 30.8 -1.0 9 18.9 SSW 22 35 12 19 1009.0 1008.4 0.0
30/04:30pm 37.1 33.9 5.2 14 17.4 WSW 11 19 6 10 1009.0 1008.4 0.0
30/04:00pm 37.0 33.8 5.1 14 17.4 NNW 11 20 6 11 1009.1 1008.5 0.0
30/03:30pm 36.4 32.8 8.3 18 16.0 NNW 17 30 9 16 1009.1 1008.5 0.0
30/03:00pm 36.9 32.3 9.5 19 16.0 NW 24 35 13 19 1009.3 1008.7 0.0
30/02:30pm 36.6 32.9 10.0 20 15.6 NW 20 32 11 17 1009.9 1009.3 0.0
30/02:00pm 36.5 31.6 11.3 22 15.0 NW 28 54 15 29 1010.3 1009.7 0.0
30/01:54pm 36.7 32.6 11.5 22 15.1 NNW 24 54 13 29 1010.4 1009.8 0.0
30/01:30pm 35.0 30.9 11.4 24 14.0 NNW 24 41 13 22 1010.9 1010.3 0.0
30/01:00pm 35.7 32.3 12.6 25 14.0 NW 22 37 12 20 1011.5 1011.0 0.0
30/12:30pm 35.4 31.6 11.1 23 14.4 NW 22 39 12 21 1012.0 1011.5 0.0
30/12:00pm 34.2 29.5 12.0 26 13.3 NW 28 39 15 21 1012.5 1012.0 0.0
30/11:30am 33.1 28.6 12.7 29 12.3 NNW 28 41 15 22 1013.2 1012.7 0.0
30/11:00am 32.1 27.3 12.8 30 11.6 NNW 30 41 16 22 1013.5 1013.0 0.0
30/10:30am 30.9 25.7 12.8 33 10.8 NNW 32 41 17 22 1014.1 1013.5 0.0
30/10:27am 31.0 26.3 13.3 34 10.6 NNW 30 48 16 26 1014.2 1013.6 0.0
30/10:00am 30.3 25.4 13.6 36 10.1 NNW 32 43 17 23 1014.4 1013.8 0.0
30/09:30am 28.9 23.6 13.2 38 9.3 N 33 44 18 24 1014.5 1013.9 0.0
30/09:00am 28.1 23.0 13.2 39 8.8 N 32 41 17 22 1014.6 1014.0 0.0
30/08:30am 27.5 22.2 14.2 44 8.0 N 35 43 19 23 1014.4 1013.8 0.0
30/08:00am 26.1 21.2 13.6 46 7.4 N 32 39 17 21 1014.2 1013.6 0.0
30/07:30am 25.5 21.5 13.0 46 7.3 N 26 33 14 18 1013.6 1013.1 0.0
30/07:00am 24.4 21.0 12.4 47 6.9 N 22 30 12 16 1013.0 1012.5 0.0
30/06:30am 23.7 19.5 11.1 45 7.1 N 24 32 13 17 1012.3 1011.8 0.0
30/06:00am 24.4 19.8 11.0 43 7.5 N 26 32 14 17 1011.8 1011.3 0.0
30/05:30am 23.1 19.7 9.1 41 7.6 N 17 20 9 11 1012.1 1011.6 0.0
30/05:00am 22.5 20.0 9.6 44 7.0 N 13 17 7 9 1012.2 1011.7 0.0
30/04:30am 22.6 20.4 9.4 43 7.1 N 11 13 6 7 1012.2 1011.7 0.0
30/04:00am 23.2 19.5 9.6 42 7.4 NE 19 24 10 13 1011.6 1011.1 0.0
30/03:30am 21.2 18.6 5.9 37 7.7 ESE 9 13 5 7 1010.6 1010.0 0.0
30/03:00am 20.8 18.0 5.2 36 7.7 NW 9 9 5 5 1010.4 1009.8 0.0
30/02:30am 21.6 18.3 6.3 37 7.8 NW 13 17 7 9 1010.6 1010.0 0.0
30/02:00am 22.2 18.1 6.0 35 8.2 WNW 17 19 9 10 1011.0 1010.5 0.0
30/01:30am 23.3 18.5 4.8 30 9.2 NW 19 20 10 11 1011.2 1010.7 0.0
30/01:00am 23.7 19.5 3.6 27 9.9 N 15 17 8 9 1011.4 1010.9 0.0
30/12:30am 23.4 18.7 3.4 27 9.7 NNW 17 20 9 11 1011.5 1011.0 0.0
30/12:00am 23.5 20.1 4.0 28 9.6 SSW 11 13 6 7 1011.4 1010.9 0.0
 
Date/Time
EST
Temp
°C
App
Temp
°C
Dew
Point
°C
Rel
Hum
%
Delta-T
°C
Wind Press
QNH
hPa
Press
MSL
hPa
Rain since
9am
mm
Dir  Spd
km/h
Gust
km/h
Spd
kts
Gust
kts
29/11:30pm 24.9 21.6 4.6 27 10.2 SSW 11 13 6 7 1011.6 1011.1 0.0
29/11:00pm 25.2 21.9 4.3 26 10.5 SSW 11 13 6 7 1011.8 1011.3 0.0
29/10:30pm 24.1 20.3 4.0 27 10.0 SSW 13 13 7 7 1011.9 1011.4 0.0
29/10:00pm 24.9 21.4 3.5 25 10.6 SSW 11 13 6 7 1011.8 1011.3 0.0
29/09:30pm 25.4 21.9 3.4 24 10.9 SW 11 13 6 7 1011.9 1011.4 0.0
29/09:00pm 27.8 25.1 3.5 21 12.2 SW 7 9 4 5 1011.7 1011.2 0.0
29/08:30pm 26.7 23.1 3.2 22 11.7 SW 11 13 6 7 1011.4 1010.9 0.0
29/08:00pm 29.5 27.8 4.2 20 13.0 NNW 2 6 1 3 1011.1 1010.6 0.0
29/07:30pm 29.8 28.4 3.7 19 13.3 CALM 0 0 0 0 1011.1 1010.6 0.0
29/07:00pm 32.2 30.1 4.1 17 14.7 NNW 4 6 2 3 1010.7 1010.1 0.0
29/06:30pm 32.4 28.9 3.4 16 15.0 N 11 13 6 7 1010.2 1009.6 0.0
29/06:00pm 35.0 31.5 3.5 14 16.6 N 11 17 6 9 1010.0 1009.4 0.0
29/05:30pm 36.1 32.2 3.3 13 17.3 NNW 13 20 7 11 1009.7 1009.1 0.0
29/05:00pm 36.8 32.8 2.8 12 17.9 NW 13 20 7 11 1009.3 1008.7 0.0
29/04:30pm 37.0 33.2 4.0 13 17.7 NNW 13 20 7 11 1009.2 1008.6 0.0
29/04:00pm 37.3 33.3 3.1 12 18.1 W 13 20 7 11 1009.3 1008.7 0.0
29/03:30pm 37.1 33.5 5.2 14 17.4 WNW 13 24 7 13 1009.6 1009.0 0.0
29/03:00pm 35.8 33.0 5.1 15 16.6 NNW 9 22 5 12 1010.0 1009.4 0.0
29/02:30pm 35.7 32.1 5.1 15 16.5 NNE 13 22 7 12 1010.4 1009.8 0.0
29/02:00pm 35.9 31.4 6.2 16 16.4 NNW 19 32 10 17 1011.2 1010.7 0.0
29/01:30pm 35.9 32.0 7.0 17 16.1 N 17 26 9 14 1011.7 1011.2 0.0
29/01:00pm 34.8 31.8 7.8 19 15.2 NNW 13 22 7 12 1012.5 1012.0 0.0
29/12:30pm 34.6 31.0 8.4 20 14.8 N 17 28 9 15 1013.2 1012.7 0.0
29/12:00pm 34.3 30.6 9.5 22 14.3 NNW 19 28 10 15 1014.1 1013.5 0.0
29/11:30am 33.2 28.5 9.3 23 13.6 N 24 48 13 26 1014.7 1014.1 0.0
29/11:00am 32.6 28.3 9.4 24 13.2 N 22 32 12 17 1015.1 1014.5 0.0
29/10:30am 31.7 26.9 10.4 27 12.3 N 26 33 14 18 1015.6 1015.0 0.0
29/10:00am 30.8 26.3 10.2 28 11.8 N 24 33 13 18 1016.0 1015.4 0.0
29/09:30am 29.3 24.5 10.4 31 10.8 N 26 35 14 19 1016.0 1015.4 0.0
29/09:00am 28.0 23.1 9.8 32 10.2 NNE 26 32 14 17 1016.1 1015.5 0.0
29/08:30am 25.7 21.5 8.2 33 9.4 NNE 20 30 11 16 1016.0 1015.4 0.0
29/08:00am 23.4 18.7 3.4 27 9.7 ENE 17 20 9 11 1015.9 1015.3 0.0
29/07:30am 19.8 14.6 -3.1 21 9.5 E 15 19 8 10 1015.6 1015.0 0.0
29/07:00am 16.8 11.3 -5.6 21 8.6 ESE 15 19 8 10 1015.3 1014.7 0.0
29/06:30am 14.5 9.0 -5.8 24 7.6 ESE 15 17 8 9 1014.8 1014.2 0.0
29/06:00am 14.5 8.9 -6.4 23 7.7 SE 15 17 8 9 1014.4 1013.8 0.0
29/05:30am 14.6 9.0 -6.8 22 7.8 SE 15 17 8 9 1014.1 1013.5 0.0
29/05:00am 14.7 8.7 -6.8 22 7.9 SE 17 19 9 10 1013.4 1012.9 0.0
29/04:30am 14.5 9.2 -6.9 22 7.8 SE 13 17 7 9 1013.3 1012.8 0.0
29/04:00am 13.6 7.9 -7.1 23 7.4 SE 15 17 8 9 1013.1 1012.6 0.0
29/03:30am 14.5 8.4 -7.5 21 7.9 SE 17 20 9 11 1013.4 1012.9 0.0
29/03:00am 15.1 9.0 -7.7 20 8.2 ESE 17 19 9 10 1013.8 1013.3 0.0
29/02:30am 15.2 9.1 -7.6 20 8.2 SE 17 19 9 10 1014.0 1013.4 0.0
29/02:00am 15.9 10.2 -7.7 19 8.6 ESE 15 17 8 9 1014.3 1013.7 0.0
29/01:30am 18.6 12.1 -8.5 15 10.0 SE 19 20 10 11 1014.5 1013.9 0.0
29/01:00am 19.5 12.7 -8.7 14 10.5 SE 20 24 11 13 1014.7 1014.1 0.0
29/12:30am 20.1 13.4 -8.2 14 10.7 SE 20 24 11 13 1014.9 1014.3 0.0
29/12:00am 19.7 13.2 -7.6 15 10.4 SSE 19 20 10 11 1015.0 1014.4 0.0
 
Date/Time
EST
Temp
°C
App
Temp
°C
Dew
Point
°C
Rel
Hum
%
Delta-T
°C
Wind Press
QNH
hPa
Press
MSL
hPa
Rain since
9am
mm
Dir  Spd
km/h
Gust
km/h
Spd
kts
Gust
kts
28/11:30pm 19.2 12.8 -7.2 16 10.1 SSE 19 20 10 11 1015.1 1014.5 0.0
28/11:00pm 20.1 14.3 -8.2 14 10.7 SSE 15 19 8 10 1015.0 1014.4 0.0
28/10:30pm 21.7 15.1 -8.9 12 11.6 SSE 19 20 10 11 1014.9 1014.3 0.0
28/10:00pm 22.3 15.6 -8.4 12 11.8 SSE 20 24 11 13 1014.9 1014.3 0.0
28/09:30pm 22.7 15.9 -9.2 11 12.1 SSE 20 22 11 12 1014.9 1014.3 0.0
28/09:00pm 23.8 17.3 -8.4 11 12.6 SSE 19 22 10 12 1014.7 1014.1 0.0
28/08:30pm 24.0 17.2 -9.5 10 12.8 SSE 20 22 11 12 1014.2 1013.6 0.0
28/08:00pm 24.1 17.5 -9.4 10 12.9 SSE 19 20 10 11 1014.2 1013.6 0.0
28/07:30pm 24.5 17.9 -9.1 10 13.0 SSE 19 20 10 11 1014.0 1013.4 0.0
28/07:00pm 26.9 20.3 -8.6 9 14.3 SSE 19 20 10 11 1013.7 1013.2 0.0
28/06:30pm 30.1 23.6 -7.7 8 15.9 SSE 19 22 10 12 1013.2 1012.7 0.0
28/06:00pm 33.2 26.0 -9.2 6 17.9 SE 22 28 12 15 1012.8 1012.3 0.0
28/05:30pm 34.3 27.4 -10.7 5 18.7 SSE 20 28 11 15 1012.4 1011.9 0.0
28/05:00pm 34.9 28.8 -8.0 6 18.7 SE 17 24 9 13 1012.3 1011.8 0.0
28/04:30pm 35.2 28.5 -7.7 6 18.8 SSE 20 33 11 18 1012.4 1011.9 0.0
28/04:00pm 35.6 28.9 -7.5 6 19.0 SSE 20 32 11 17 1012.4 1011.9 0.0
28/03:30pm 34.9 28.4 -8.0 6 18.7 ESE 19 30 10 16 1012.7 1012.2 0.0
28/03:00pm 35.2 29.1 -7.7 6 18.8 SE 17 24 9 13 1013.0 1012.5 0.0
28/02:30pm 34.5 29.1 -8.2 6 18.5 SE 13 22 7 12 1013.6 1013.1 0.0
28/02:00pm 34.0 29.1 -6.6 7 18.0 ENE 11 19 6 10 1014.2 1013.6 0.0
28/01:30pm 34.0 28.8 -6.6 7 18.0 ESE 13 19 7 10 1014.9 1014.3 0.0
28/01:00pm 33.9 27.7 -4.9 8 17.6 SSE 19 26 10 14 1015.5 1014.9 0.0
28/12:30pm 32.9 27.2 -4.1 9 16.9 SSE 17 28 9 15 1016.3 1015.7 0.0

Other formats

Comma delimited format used in spreadsheet applications
http://www.bom.gov.au/fwo/IDQ60801/IDQ60801.94337.axf

JavaScript Object Notation format (JSON) in row-major order
http://www.bom.gov.au/fwo/IDQ60801/IDQ60801.94337.json

Data quality

Most of these data are generated automatically and are frequently updated. Quality checks on data are not normally performed. It is possible for incorrect values to appear. Refer to information at About Latest Weather Observations and please check the disclaimer before using these data.